Time;durP1;ratioP1;P1;durP2;ratioP2;P2;SDS_P1;SDS_P2;PMS_P1;PMS_P2;Temp;Humidity;BMP_temperature;BMP_pressure;BME280_temperature;BME280_humidity;BME280_pressure;Samples;Min_cycle;Max_cycle;Signal;HPM_P1;HPM_P2
2021/12/09 00:00:59;;;;;;;9.88;6.93;;;2.30;99.90;;;;;;5075604;28;20119;-82
2021/12/09 00:03:28;;;;;;;9.82;6.45;;;2.30;99.90;;;;;;5057935;28;20028;-81
2021/12/09 00:05:55;;;;;;;10.18;6.25;;;2.30;99.90;;;;;;5058413;28;20028;-81
2021/12/09 00:08:22;;;;;;;8.15;5.28;;;2.30;99.90;;;;;;5058130;28;20060;-79
2021/12/09 00:10:48;;;;;;;7.60;5.30;;;2.30;99.90;;;;;;5058326;28;20017;-79
2021/12/09 00:13:14;;;;;;;7.35;5.70;;;2.30;99.90;;;;;;5052792;28;20041;-84
2021/12/09 00:15:40;;;;;;;9.07;6.38;;;2.30;99.90;;;;;;5041281;28;20022;-83
2021/12/09 00:18:05;;;;;;;8.63;5.60;;;2.30;99.90;;;;;;5025575;28;20026;-83
2021/12/09 00:20:31;;;;;;;8.40;6.30;;;2.30;99.90;;;;;;5025311;28;20139;-84
2021/12/09 00:22:57;;;;;;;7.20;5.40;;;2.30;99.90;;;;;;5047025;28;20032;-83
2021/12/09 00:25:23;;;;;;;9.75;6.28;;;2.30;99.90;;;;;;5048747;28;20086;-83
2021/12/09 00:27:51;;;;;;;7.13;5.55;;;2.40;99.90;;;;;;5047320;28;20042;-84
2021/12/09 00:30:18;;;;;;;10.15;6.05;;;2.40;99.90;;;;;;5049107;28;20018;-85
2021/12/09 00:32:44;;;;;;;7.93;5.70;;;2.30;99.90;;;;;;5029818;28;20025;-83
2021/12/09 00:35:13;;;;;;;9.77;6.90;;;2.30;99.90;;;;;;5048241;28;20032;-85
2021/12/09 00:37:50;;;;;;;8.45;6.10;;;2.30;99.90;;;;;;5048415;28;20025;-85
2021/12/09 00:40:16;;;;;;;7.88;5.75;;;2.30;99.90;;;;;;5031201;28;20025;-81
2021/12/09 00:42:42;;;;;;;11.13;6.47;;;2.30;99.90;;;;;;5027797;28;20176;-84
2021/12/09 00:45:08;;;;;;;8.57;6.32;;;2.30;99.90;;;;;;5048439;28;20030;-84
2021/12/09 00:50:10;;;;;;;9.15;6.43;;;2.30;99.90;;;;;;5121004;23;20069;-78
2021/12/09 00:52:36;;;;;;;10.90;7.18;;;2.30;99.90;;;;;;4988656;28;20133;-78
2021/12/09 00:55:04;;;;;;;9.20;6.13;;;2.30;99.90;;;;;;5018072;28;20027;-83
2021/12/09 00:57:30;;;;;;;9.90;7.00;;;2.20;99.90;;;;;;5011190;28;20073;-81
2021/12/09 00:59:58;;;;;;;9.35;6.47;;;2.20;99.90;;;;;;5017254;28;20022;-80
2021/12/09 01:02:24;;;;;;;9.20;6.90;;;2.20;99.90;;;;;;5025293;28;20018;-82
2021/12/09 01:04:49;;;;;;;10.60;6.55;;;2.20;99.90;;;;;;5033111;23;20046;-80
2021/12/09 01:07:15;;;;;;;8.50;6.43;;;2.20;99.90;;;;;;5034441;28;20083;-81
2021/12/09 01:09:41;;;;;;;9.32;6.40;;;2.20;99.90;;;;;;5020426;28;20032;-80
2021/12/09 01:12:08;;;;;;;10.15;7.22;;;2.20;99.90;;;;;;5030501;28;20014;-81
2021/12/09 01:14:37;;;;;;;9.18;6.32;;;2.20;99.90;;;;;;5030424;28;20026;-81
2021/12/09 01:17:08;;;;;;;9.27;6.07;;;2.10;99.90;;;;;;5015194;28;20439;-80
2021/12/09 01:19:34;;;;;;;6.85;5.53;;;2.10;99.90;;;;;;5013869;28;20033;-80
2021/12/09 01:22:00;;;;;;;9.05;6.20;;;2.00;99.90;;;;;;5015596;28;20049;-80
2021/12/09 01:24:26;;;;;;;9.93;6.13;;;2.00;99.90;;;;;;5014920;28;20458;-81
2021/12/09 01:26:52;;;;;;;8.40;5.85;;;2.00;99.90;;;;;;5030103;28;20065;-81
2021/12/09 01:29:27;;;;;;;8.38;5.97;;;2.00;99.90;;;;;;5012827;28;20034;-80
2021/12/09 01:31:59;;;;;;;7.80;5.95;;;1.90;99.90;;;;;;5030455;28;20018;-81
2021/12/09 01:34:25;;;;;;;6.97;5.18;;;2.00;99.90;;;;;;5031411;28;20026;-80
2021/12/09 01:36:51;;;;;;;5.75;4.65;;;1.90;99.90;;;;;;5036384;28;20087;-81
2021/12/09 01:39:18;;;;;;;7.30;5.38;;;1.90;99.90;;;;;;5049185;28;20025;-80
2021/12/09 01:41:44;;;;;;;5.35;4.18;;;1.90;99.90;;;;;;5050237;28;20025;-79
2021/12/09 01:44:10;;;;;;;7.03;4.78;;;1.90;99.90;;;;;;5049068;28;20052;-80
2021/12/09 01:46:36;;;;;;;5.43;4.53;;;1.80;99.90;;;;;;5031242;28;20072;-80
2021/12/09 01:49:02;;;;;;;7.80;5.60;;;1.80;99.90;;;;;;5048213;28;20029;-80
2021/12/09 01:51:28;;;;;;;6.05;4.38;;;1.80;99.90;;;;;;5049321;28;20397;-80
2021/12/09 01:53:54;;;;;;;5.05;3.88;;;1.80;99.90;;;;;;5028921;28;20021;-81
2021/12/09 01:56:23;;;;;;;5.93;4.88;;;1.70;99.90;;;;;;5026662;28;20049;-80
2021/12/09 01:58:51;;;;;;;6.28;4.20;;;1.70;99.90;;;;;;5021391;28;20029;-81
2021/12/09 02:01:18;;;;;;;7.18;4.55;;;1.70;99.90;;;;;;5023838;28;20077;-81
2021/12/09 02:03:45;;;;;;;6.65;4.85;;;1.70;99.90;;;;;;5020694;28;20478;-81
2021/12/09 02:06:11;;;;;;;5.20;4.25;;;1.70;99.90;;;;;;5028685;28;20037;-80
2021/12/09 02:08:37;;;;;;;5.78;4.40;;;1.70;99.90;;;;;;4993723;28;20034;-81
2021/12/09 02:11:03;;;;;;;5.45;4.43;;;1.70;99.90;;;;;;4994653;28;20022;-80
2021/12/09 02:13:29;;;;;;;4.75;4.35;;;1.70;99.90;;;;;;5012452;28;20032;-81
2021/12/09 02:15:56;;;;;;;6.05;4.68;;;1.60;99.90;;;;;;5025260;28;20097;-81
2021/12/09 02:18:23;;;;;;;5.80;3.90;;;1.60;99.90;;;;;;5033191;28;20037;-82
2021/12/09 02:21:15;;;;;;;5.22;4.45;;;1.60;99.90;;;;;;5017388;28;20054;-81
2021/12/09 02:23:52;;;;;;;5.90;4.20;;;1.60;99.90;;;;;;5034356;28;20002;-81
2021/12/09 02:26:23;;;;;;;4.47;3.83;;;1.60;99.90;;;;;;5017143;28;20048;-81
2021/12/09 02:28:51;;;;;;;5.05;4.30;;;1.70;99.90;;;;;;5038070;28;20042;-82
2021/12/09 02:31:17;;;;;;;5.18;4.10;;;1.60;99.90;;;;;;5038235;28;20026;-80
2021/12/09 02:33:42;;;;;;;4.63;3.70;;;1.60;99.90;;;;;;5037990;28;20036;-80
2021/12/09 02:36:09;;;;;;;4.88;4.38;;;1.60;99.90;;;;;;5035687;28;20029;-80
2021/12/09 02:38:42;;;;;;;4.43;4.03;;;1.60;99.90;;;;;;5035968;28;20036;-81
2021/12/09 02:41:10;;;;;;;4.30;3.90;;;1.50;99.90;;;;;;5032959;28;20018;-81
2021/12/09 02:43:36;;;;;;;4.45;4.05;;;1.60;99.90;;;;;;5038407;28;20030;-81
2021/12/09 02:46:02;;;;;;;5.15;4.40;;;1.60;99.90;;;;;;5031853;28;20033;-82
2021/12/09 02:48:28;;;;;;;4.88;4.22;;;1.60;99.90;;;;;;5028871;28;20034;-81
2021/12/09 02:50:55;;;;;;;4.93;4.25;;;1.60;99.90;;;;;;5021652;28;20022;-81
2021/12/09 02:53:21;;;;;;;5.45;4.93;;;1.50;99.90;;;;;;5015505;28;20022;-81
2021/12/09 02:55:47;;;;;;;5.32;4.68;;;1.50;99.90;;;;;;5022264;28;20030;-81
2021/12/09 02:58:13;;;;;;;5.82;5.05;;;1.50;99.90;;;;;;5031324;28;20030;-81
2021/12/09 03:00:59;;;;;;;7.22;5.25;;;1.50;99.90;;;;;;5015607;28;20045;-81
2021/12/09 03:03:25;;;;;;;5.18;4.40;;;1.50;99.90;;;;;;5033744;28;20029;-81
2021/12/09 03:05:53;;;;;;;4.85;4.35;;;1.50;99.90;;;;;;5043412;28;20029;-81
2021/12/09 03:08:24;;;;;;;6.05;5.28;;;1.50;99.90;;;;;;5034789;28;20013;-81
2021/12/09 03:10:50;;;;;;;5.97;5.38;;;1.60;99.90;;;;;;5037341;28;20078;-81
2021/12/09 03:13:17;;;;;;;5.72;4.90;;;1.60;99.90;;;;;;5040475;28;20030;-81
2021/12/09 03:15:43;;;;;;;6.22;4.78;;;1.60;99.90;;;;;;5020869;28;20020;-81
2021/12/09 03:18:08;;;;;;;6.10;5.32;;;1.60;99.90;;;;;;5020303;28;20049;-81
2021/12/09 03:20:34;;;;;;;6.75;5.38;;;1.60;99.90;;;;;;5037655;28;20026;-78
2021/12/09 03:23:00;;;;;;;6.30;5.32;;;1.60;99.90;;;;;;5036181;28;20065;-82
2021/12/09 03:25:26;;;;;;;6.60;5.47;;;1.60;99.90;;;;;;5019891;28;20037;-82
2021/12/09 03:27:52;;;;;;;6.55;5.45;;;1.70;99.90;;;;;;5019716;28;20021;-82
2021/12/09 03:30:19;;;;;;;7.15;5.70;;;1.60;99.90;;;;;;5018683;28;20037;-81
2021/12/09 03:32:45;;;;;;;7.63;6.43;;;1.60;99.90;;;;;;5029904;28;20030;-82
2021/12/09 03:35:13;;;;;;;6.43;5.30;;;1.70;99.90;;;;;;5013748;28;20032;-81
2021/12/09 03:37:40;;;;;;;11.57;8.35;;;1.70;99.90;;;;;;5035161;28;20481;-83
2021/12/09 03:40:09;;;;;;;7.93;6.65;;;1.70;99.90;;;;;;5043017;28;20025;-83
2021/12/09 03:42:35;;;;;;;6.88;5.72;;;1.70;99.90;;;;;;5033629;28;20022;-81
2021/12/09 03:45:03;;;;;;;7.40;5.97;;;1.70;99.90;;;;;;5021772;28;20030;-81
2021/12/09 03:47:30;;;;;;;6.80;5.97;;;1.70;99.90;;;;;;5022441;28;20053;-80
2021/12/09 03:49:57;;;;;;;7.18;6.07;;;1.70;99.90;;;;;;5004593;28;20029;-79
2021/12/09 03:52:26;;;;;;;7.10;6.32;;;1.70;99.90;;;;;;5004942;28;20046;-81
2021/12/09 03:54:52;;;;;;;8.77;7.03;;;1.70;99.90;;;;;;5005350;28;20047;-80
2021/12/09 03:57:19;;;;;;;7.70;6.63;;;1.70;99.90;;;;;;5034307;28;20065;-81
2021/12/09 03:59:46;;;;;;;8.18;7.20;;;1.60;99.90;;;;;;5022472;28;20026;-80
2021/12/09 04:02:12;;;;;;;9.77;7.18;;;1.60;99.90;;;;;;5002154;28;20045;-81
2021/12/09 04:04:39;;;;;;;9.65;6.85;;;1.60;99.90;;;;;;5006254;28;20038;-81
2021/12/09 04:07:06;;;;;;;9.95;7.20;;;1.60;99.90;;;;;;5032101;28;20071;-81
2021/12/09 04:09:32;;;;;;;9.13;6.80;;;1.60;99.90;;;;;;5040920;28;20438;-80
2021/12/09 04:11:58;;;;;;;11.38;7.53;;;1.60;99.90;;;;;;5040073;28;20185;-81
2021/12/09 04:14:24;;;;;;;10.00;7.68;;;1.60;99.90;;;;;;5022388;28;20440;-80
2021/12/09 04:16:51;;;;;;;9.63;7.15;;;1.60;99.90;;;;;;5022119;28;20026;-81
2021/12/09 04:19:17;;;;;;;8.50;7.18;;;1.60;99.90;;;;;;5022306;28;20025;-81
2021/12/09 04:21:44;;;;;;;8.70;6.75;;;1.60;99.90;;;;;;5022067;28;20479;-79
2021/12/09 04:24:14;;;;;;;9.73;6.93;;;1.60;99.90;;;;;;5003220;28;20046;-83
2021/12/09 04:26:45;;;;;;;9.02;7.47;;;1.60;99.90;;;;;;5004734;28;20065;-81
2021/12/09 04:29:13;;;;;;;10.07;7.68;;;1.60;99.90;;;;;;5005509;28;20026;-80
2021/12/09 04:31:40;;;;;;;8.98;7.07;;;1.60;99.90;;;;;;4982424;28;20034;-80
2021/12/09 04:34:08;;;;;;;11.23;7.65;;;1.60;99.90;;;;;;5010860;28;20080;-81
2021/12/09 04:36:34;;;;;;;10.52;7.72;;;1.70;99.90;;;;;;5037057;28;20036;-80
2021/12/09 04:39:04;;;;;;;8.90;7.30;;;1.70;99.90;;;;;;5028102;28;20490;-81
2021/12/09 04:41:30;;;;;;;8.73;7.40;;;1.70;99.90;;;;;;5022968;28;20030;-80
2021/12/09 04:43:56;;;;;;;10.38;8.38;;;1.70;99.90;;;;;;5032744;28;20053;-79
2021/12/09 04:46:22;;;;;;;10.15;8.50;;;1.60;99.90;;;;;;5034684;28;20030;-80
2021/12/09 04:48:48;;;;;;;9.35;7.00;;;1.60;99.90;;;;;;5021552;28;20115;-79
2021/12/09 04:51:14;;;;;;;9.75;7.78;;;1.60;99.90;;;;;;5025795;28;20033;-78
2021/12/09 04:53:40;;;;;;;9.95;8.18;;;1.60;99.90;;;;;;5029208;28;20053;-80
2021/12/09 04:56:06;;;;;;;11.70;9.07;;;1.60;99.90;;;;;;5025337;28;20429;-78
2021/12/09 04:58:32;;;;;;;11.68;8.48;;;1.60;99.90;;;;;;5023657;28;20029;-79
2021/12/09 05:01:00;;;;;;;9.65;7.43;;;1.60;99.90;;;;;;5023166;28;20041;-79
2021/12/09 05:03:26;;;;;;;8.38;6.60;;;1.60;99.90;;;;;;5024857;28;20082;-80
2021/12/09 05:05:55;;;;;;;9.95;7.90;;;1.60;99.90;;;;;;5035153;28;20018;-80
2021/12/09 05:08:26;;;;;;;9.43;7.20;;;1.60;99.90;;;;;;5031542;28;20057;-80
2021/12/09 05:10:59;;;;;;;10.95;7.78;;;1.60;99.90;;;;;;5030452;28;20026;-80
2021/12/09 05:13:26;;;;;;;;;;;1.70;99.90;;;;;;5030361;28;20021;-80
2021/12/09 05:15:53;;;;;;;9.45;7.18;;;1.60;99.90;;;;;;5034611;28;19905;-79
2021/12/09 05:18:19;;;;;;;10.13;8.07;;;1.70;99.90;;;;;;5034736;28;20093;-79
2021/12/09 05:20:46;;;;;;;11.38;8.40;;;1.60;99.90;;;;;;5018666;28;20085;-81
2021/12/09 05:23:13;;;;;;;14.70;8.93;;;1.60;99.90;;;;;;5037202;28;20105;-80
2021/12/09 05:25:39;;;;;;;10.85;8.20;;;1.70;99.90;;;;;;5037331;28;20018;-79
2021/12/09 05:28:07;;;;;;;11.20;7.95;;;1.70;99.90;;;;;;5033295;28;20061;-79
2021/12/09 05:32:07;;;;;;;11.70;8.90;;;1.70;99.90;;;;;;5028991;28;20064;-79
2021/12/09 05:33:27;;;;;;;11.13;7.85;;;1.70;99.90;;;;;;5032119;28;20061;-80
2021/12/09 05:35:54;;;;;;;10.13;7.50;;;1.70;99.90;;;;;;5042670;28;20010;-79
2021/12/09 05:38:20;;;;;;;13.23;8.57;;;1.70;99.90;;;;;;5056274;28;20072;-80
2021/12/09 05:40:48;;;;;;;9.25;7.32;;;1.70;99.90;;;;;;5045567;28;20026;-79
2021/12/09 05:43:15;;;;;;;10.30;8.00;;;1.70;99.90;;;;;;5042079;28;20026;-79
2021/12/09 05:45:42;;;;;;;9.82;7.45;;;1.70;99.90;;;;;;5038447;28;20057;-81
2021/12/09 05:48:09;;;;;;;9.15;7.28;;;1.70;99.90;;;;;;5031993;28;20033;-80
2021/12/09 05:50:36;;;;;;;9.93;7.15;;;1.70;99.90;;;;;;5021788;28;20022;-80
2021/12/09 05:53:01;;;;;;;8.77;7.28;;;1.70;99.90;;;;;;5021430;28;20026;-80
2021/12/09 05:55:27;;;;;;;10.38;7.28;;;1.70;99.90;;;;;;5028311;28;20073;-80
2021/12/09 05:57:53;;;;;;;11.68;7.95;;;1.70;99.90;;;;;;5027417;28;20025;-81
2021/12/09 06:00:19;;;;;;;8.85;6.68;;;1.70;99.90;;;;;;5008359;28;20022;-79
2021/12/09 06:02:44;;;;;;;10.13;6.95;;;1.70;99.90;;;;;;5027575;28;20086;-80
2021/12/09 06:05:10;;;;;;;8.55;6.65;;;1.70;99.90;;;;;;5032849;28;20140;-80
2021/12/09 06:07:36;;;;;;;7.88;5.88;;;1.70;99.90;;;;;;5029928;28;20033;-80
2021/12/09 06:10:04;;;;;;;8.20;6.22;;;1.70;99.90;;;;;;5046444;28;20022;-79
2021/12/09 06:12:30;;;;;;;9.13;7.22;;;1.70;99.90;;;;;;5044257;28;20034;-80
2021/12/09 06:14:56;;;;;;;9.00;6.22;;;1.70;99.90;;;;;;5024283;28;20045;-80
2021/12/09 06:17:22;;;;;;;9.75;6.40;;;1.70;99.90;;;;;;5025577;28;20037;-79
2021/12/09 06:19:48;;;;;;;6.63;5.07;;;1.70;99.90;;;;;;5024462;28;20030;-79
2021/12/09 06:22:13;;;;;;;7.80;5.95;;;1.60;99.90;;;;;;5027194;28;20050;-81
2021/12/09 06:24:40;;;;;;;8.18;5.90;;;1.70;99.90;;;;;;5027818;28;20041;-80
2021/12/09 06:27:06;;;;;;;7.22;5.40;;;1.70;99.90;;;;;;5025255;28;20026;-79
2021/12/09 06:29:33;;;;;;;7.07;5.13;;;1.70;99.90;;;;;;5007992;28;20022;-79
2021/12/09 06:31:59;;;;;;;6.28;4.88;;;1.70;99.90;;;;;;5026289;28;20080;-80
2021/12/09 06:34:25;;;;;;;6.28;4.82;;;1.70;99.90;;;;;;5027461;28;20053;-80
2021/12/09 06:36:54;;;;;;;5.68;4.22;;;1.70;99.90;;;;;;5028173;28;20028;-80
2021/12/09 06:39:19;;;;;;;9.23;5.18;;;1.70;99.90;;;;;;5027337;28;20034;-80
2021/12/09 06:41:45;;;;;;;6.55;4.47;;;1.70;99.90;;;;;;5047280;28;20081;-81
2021/12/09 06:44:11;;;;;;;6.18;4.30;;;1.70;99.90;;;;;;5013061;28;20033;-80
2021/12/09 06:46:37;;;;;;;7.65;4.93;;;1.60;99.90;;;;;;5028372;28;20089;-81
2021/12/09 06:49:04;;;;;;;7.80;5.10;;;1.60;99.90;;;;;;5012950;28;20083;-81
2021/12/09 06:51:31;;;;;;;5.63;4.68;;;1.60;99.90;;;;;;5027642;28;20176;-79
2021/12/09 06:53:57;;;;;;;7.55;5.25;;;1.60;99.90;;;;;;5025465;28;20113;-82
2021/12/09 06:56:25;;;;;;;6.53;4.72;;;1.60;99.90;;;;;;5026860;28;20057;-79
2021/12/09 06:58:50;;;;;;;5.97;4.07;;;1.70;99.90;;;;;;5025939;28;20029;-81
2021/12/09 07:01:17;;;;;;;6.53;3.97;;;1.70;99.90;;;;;;5027853;28;20030;-81
2021/12/09 07:03:43;;;;;;;7.03;3.90;;;1.70;99.90;;;;;;5048240;23;20033;-79
2021/12/09 07:06:11;;;;;;;6.68;4.47;;;1.70;99.90;;;;;;5018464;28;20462;-81
2021/12/09 07:08:44;;;;;;;4.55;3.47;;;1.70;99.90;;;;;;5027593;28;20437;-81
2021/12/09 07:11:10;;;;;;;6.75;4.13;;;1.60;99.90;;;;;;5024961;28;20026;-81
2021/12/09 07:13:36;;;;;;;6.45;3.58;;;1.60;99.90;;;;;;5026493;28;20046;-81
2021/12/09 07:16:02;;;;;;;6.80;3.60;;;1.70;99.90;;;;;;5010574;28;20022;-81
2021/12/09 07:18:28;;;;;;;5.43;3.55;;;1.70;99.90;;;;;;5010476;28;20029;-81
2021/12/09 07:20:55;;;;;;;7.35;4.18;;;1.70;99.90;;;;;;5011393;28;20022;-81
2021/12/09 07:23:21;;;;;;;5.03;3.80;;;1.70;99.90;;;;;;5028159;28;20032;-81
2021/12/09 07:25:47;;;;;;;4.47;3.47;;;1.70;99.90;;;;;;5011457;28;20111;-81
2021/12/09 07:28:14;;;;;;;4.07;3.30;;;1.70;99.90;;;;;;5010154;28;20030;-81
2021/12/09 07:30:40;;;;;;;8.32;4.20;;;1.70;99.90;;;;;;5009832;28;20010;-81
2021/12/09 07:33:06;;;;;;;8.18;3.70;;;1.70;99.90;;;;;;5009532;28;20026;-80
2021/12/09 07:35:32;;;;;;;10.80;3.90;;;1.80;99.90;;;;;;5038670;28;20021;-81
2021/12/09 07:38:03;;;;;;;10.93;3.63;;;1.80;99.90;;;;;;5027741;28;20058;-81
2021/12/09 07:40:31;;;;;;;13.90;3.90;;;1.80;99.90;;;;;;5007946;28;20502;-81
2021/12/09 07:42:58;;;;;;;7.55;4.05;;;1.80;99.90;;;;;;5021822;28;20022;-81
2021/12/09 07:45:25;;;;;;;25.70;5.18;;;1.80;99.90;;;;;;5025314;28;20029;-81
2021/12/09 07:47:51;;;;;;;8.27;4.38;;;1.80;99.90;;;;;;5026618;28;20026;-81
2021/12/09 07:50:20;;;;;;;6.20;4.05;;;1.90;99.90;;;;;;5009145;28;20025;-81
2021/12/09 07:52:50;;;;;;;7.55;3.83;;;1.90;99.90;;;;;;5009044;28;20106;-81
2021/12/09 07:55:17;;;;;;;7.38;4.07;;;1.90;99.90;;;;;;5027393;28;20025;-81
2021/12/09 07:57:44;;;;;;;6.30;4.20;;;1.90;99.90;;;;;;5028614;28;20018;-80
2021/12/09 08:00:16;;;;;;;6.10;3.90;;;2.00;99.90;;;;;;5015309;28;20021;-81
2021/12/09 08:02:43;;;;;;;;;;;2.00;99.90;;;;;;5029403;28;20026;-82
2021/12/09 08:05:09;;;;;;;4.50;3.90;;;2.00;99.90;;;;;;5034295;28;19913;-82
2021/12/09 08:07:35;;;;;;;6.53;4.13;;;1.90;99.90;;;;;;5037171;28;20032;-82
2021/12/09 08:10:01;;;;;;;6.50;4.43;;;2.00;99.90;;;;;;5030651;28;20075;-82
2021/12/09 08:12:27;;;;;;;10.02;4.35;;;1.90;99.90;;;;;;5047920;28;20022;-81
2021/12/09 08:14:53;;;;;;;12.82;4.45;;;1.90;99.90;;;;;;5009416;28;20113;-82
2021/12/09 08:20:05;;;;;;;15.45;5.38;;;2.00;99.90;;;;;;5026913;28;20065;-82
2021/12/09 08:22:32;;;;;;;10.73;5.47;;;2.00;99.90;;;;;;5009407;28;20037;-82
2021/12/09 08:24:59;;;;;;;12.82;5.28;;;2.00;99.90;;;;;;5006126;28;20073;-81
2021/12/09 08:27:26;;;;;;;8.98;4.30;;;2.00;99.90;;;;;;5008105;28;20082;-82
2021/12/09 08:29:52;;;;;;;10.82;4.75;;;2.00;99.90;;;;;;4989895;28;20046;-81
2021/12/09 08:32:18;;;;;;;24.80;6.03;;;2.00;99.90;;;;;;5008082;28;20046;-82
2021/12/09 08:34:44;;;;;;;13.90;4.75;;;2.00;99.90;;;;;;4997207;28;20014;-82
2021/12/09 08:37:11;;;;;;;14.93;4.68;;;2.00;99.90;;;;;;5017832;28;20010;-81
2021/12/09 08:39:37;;;;;;;9.70;4.30;;;2.00;99.90;;;;;;5010452;28;20120;-81
2021/12/09 08:42:03;;;;;;;10.80;4.22;;;2.00;99.90;;;;;;5029811;28;20026;-82
2021/12/09 08:44:34;;;;;;;6.65;4.05;;;2.00;99.90;;;;;;5016519;28;20022;-82
2021/12/09 08:46:59;;;;;;;11.95;4.43;;;2.10;99.90;;;;;;5033868;28;20030;-82
2021/12/09 08:49:25;;;;;;;10.30;4.47;;;2.00;99.90;;;;;;5014955;28;20046;-81
2021/12/09 08:51:51;;;;;;;9.63;3.88;;;2.00;99.90;;;;;;5031550;28;20034;-82
2021/12/09 08:54:17;;;;;;;8.25;4.05;;;2.00;99.90;;;;;;5013992;28;20030;-82
2021/12/09 08:56:44;;;;;;;8.50;4.50;;;2.10;99.90;;;;;;5015483;28;20482;-82
2021/12/09 08:59:10;;;;;;;12.65;5.07;;;2.10;99.90;;;;;;5015712;28;20030;-82
2021/12/09 09:01:37;;;;;;;21.05;5.72;;;2.20;99.90;;;;;;5014377;28;20021;-83
2021/12/09 09:04:03;;;;;;;14.35;5.05;;;2.20;99.90;;;;;;5015754;28;20033;-82
2021/12/09 09:06:32;;;;;;;11.55;4.90;;;2.20;99.90;;;;;;5018427;28;20043;-82
2021/12/09 09:08:59;;;;;;;14.07;4.70;;;2.10;99.90;;;;;;5034812;28;20025;-82
2021/12/09 09:11:25;;;;;;;12.43;5.30;;;2.10;99.90;;;;;;5015897;28;20026;-82
2021/12/09 09:13:51;;;;;;;7.65;4.10;;;2.00;99.90;;;;;;5013840;28;20045;-82
2021/12/09 09:16:17;;;;;;;6.25;3.88;;;2.00;99.90;;;;;;4999874;28;20050;-82
2021/12/09 09:18:43;;;;;;;8.65;4.32;;;2.00;99.90;;;;;;4998981;28;20023;-83
2021/12/09 09:21:14;;;;;;;6.75;3.97;;;2.00;99.90;;;;;;4998177;28;20006;-82
2021/12/09 09:23:40;;;;;;;10.70;4.70;;;2.00;99.90;;;;;;5002102;28;20041;-82
2021/12/09 09:26:05;;;;;;;6.30;4.03;;;2.00;99.90;;;;;;5028583;28;20034;-82
2021/12/09 09:28:31;;;;;;;6.45;4.15;;;2.10;99.90;;;;;;5036145;28;20064;-82
2021/12/09 09:30:57;;;;;;;7.05;3.83;;;2.10;99.90;;;;;;5038550;28;20067;-83
2021/12/09 09:33:29;;;;;;;9.90;4.10;;;2.10;99.90;;;;;;5040529;28;20028;-82
2021/12/09 09:35:54;;;;;;;10.57;4.60;;;2.20;99.90;;;;;;5037385;28;20028;-82
2021/12/09 09:38:21;;;;;;;7.70;4.55;;;2.30;99.90;;;;;;5030599;28;20031;-82
2021/12/09 09:41:02;;;;;;;8.30;4.57;;;2.30;99.90;;;;;;5028686;28;20449;-83
2021/12/09 09:45:57;;;;;;;8.30;4.25;;;2.40;99.90;;;;;;5028706;28;20081;-82
2021/12/09 09:48:24;;;;;;;6.60;4.60;;;2.50;99.90;;;;;;5011593;28;20084;-82
2021/12/09 09:50:50;;;;;;;6.53;4.68;;;2.50;99.90;;;;;;5014144;28;20036;-83
2021/12/09 09:53:17;;;;;;;6.45;4.55;;;2.60;99.90;;;;;;5029535;28;20038;-83
2021/12/09 09:55:46;;;;;;;9.60;5.82;;;2.60;99.90;;;;;;5016643;28;20026;-81
2021/12/09 09:58:12;;;;;;;9.93;5.40;;;2.60;99.90;;;;;;5024937;28;20426;-82
2021/12/09 10:00:38;;;;;;;8.55;5.38;;;2.60;99.90;;;;;;5050695;28;20034;-82
2021/12/09 10:03:09;;;;;;;8.93;5.65;;;2.60;99.90;;;;;;5050947;28;20017;-81
2021/12/09 10:05:38;;;;;;;8.30;6.25;;;2.60;99.90;;;;;;5028904;28;20037;-83
2021/12/09 10:08:04;;;;;;;12.32;7.30;;;2.60;99.90;;;;;;5012552;28;20034;-82
2021/12/09 10:10:31;;;;;;;8.80;6.93;;;2.60;99.90;;;;;;5030231;28;20041;-81
2021/12/09 10:12:59;;;;;;;12.73;7.03;;;2.60;99.90;;;;;;5030448;28;20367;-81
2021/12/09 10:15:37;;;;;;;13.80;7.63;;;2.60;99.90;;;;;;5010686;28;20037;-81
2021/12/09 10:18:03;;;;;;;14.07;6.85;;;2.70;99.90;;;;;;5028190;28;20097;-81
2021/12/09 10:20:54;;;;;;;10.05;6.78;;;2.70;99.90;;;;;;5030721;28;20486;-82
2021/12/09 10:23:33;;;;;;;16.33;7.63;;;2.70;99.90;;;;;;5011878;28;20045;-81
2021/12/09 10:26:15;;;;;;;12.25;7.90;;;2.70;99.90;;;;;;5017736;28;20024;-81
2021/12/09 10:28:48;;;;;;;17.10;8.27;;;2.70;99.90;;;;;;5017836;28;20033;-82
2021/12/09 10:31:18;;;;;;;15.27;7.93;;;2.80;99.90;;;;;;5034749;28;20022;-81
2021/12/09 10:34:10;;;;;;;15.02;8.45;;;2.80;99.90;;;;;;5029877;28;20108;-82
2021/12/09 10:37:00;;;;;;;20.65;10.10;;;2.80;99.90;;;;;;5031426;28;20018;-82
2021/12/09 10:39:31;;;;;;;20.17;8.68;;;2.90;99.90;;;;;;5011957;28;20029;-82
2021/12/09 10:41:59;;;;;;;14.95;8.55;;;2.90;99.90;;;;;;5011738;28;20033;-82
2021/12/09 10:44:41;;;;;;;13.32;7.80;;;2.90;99.90;;;;;;5026010;28;20419;-82
2021/12/09 10:47:14;;;;;;;10.73;7.53;;;3.00;99.90;;;;;;5010696;28;20058;-82
2021/12/09 10:49:53;;;;;;;12.48;7.53;;;3.00;99.90;;;;;;5030400;28;20025;-82
2021/12/09 10:52:36;;;;;;;13.20;7.97;;;3.00;99.90;;;;;;5026833;28;20014;-82
2021/12/09 10:55:10;;;;;;;17.42;7.68;;;3.00;99.90;;;;;;5009894;28;20021;-82
2021/12/09 10:57:52;;;;;;;12.18;7.55;;;3.00;99.90;;;;;;4990946;28;20026;-82
2021/12/09 11:00:23;;;;;;;14.13;7.10;;;3.00;99.90;;;;;;4998118;28;20025;-81
2021/12/09 11:03:08;;;;;;;16.98;8.23;;;3.00;99.90;;;;;;5018618;28;20034;-81
2021/12/09 11:05:41;;;;;;;8.35;5.88;;;3.00;99.90;;;;;;5016973;28;20042;-82
2021/12/09 11:08:26;;;;;;;17.05;6.97;;;3.00;99.90;;;;;;5004505;28;20025;-82
2021/12/09 11:11:28;;;;;;;13.95;7.57;;;3.00;99.90;;;;;;5031465;28;20026;-82
2021/12/09 11:14:28;;;;;;;15.45;7.63;;;3.00;99.90;;;;;;5014367;28;20076;-82
2021/12/09 11:17:08;;;;;;;17.17;8.52;;;3.00;99.90;;;;;;5007861;28;20033;-82
2021/12/09 11:19:41;;;;;;;18.05;7.07;;;3.00;99.90;;;;;;5016895;28;20029;-82
2021/12/09 11:22:11;;;;;;;18.55;6.43;;;3.00;99.90;;;;;;5015260;28;20018;-82
2021/12/09 11:24:44;;;;;;;16.83;6.30;;;3.00;99.90;;;;;;5015696;28;20032;-82
2021/12/09 11:27:12;;;;;;;12.50;6.95;;;3.00;99.90;;;;;;5037311;28;20025;-83
2021/12/09 11:29:48;;;;;;;14.20;6.45;;;3.10;99.90;;;;;;5032188;28;20032;-83
2021/12/09 11:32:38;;;;;;;14.43;6.72;;;3.10;99.90;;;;;;5032678;28;20536;-83
2021/12/09 11:35:19;;;;;;;9.45;5.65;;;3.10;99.90;;;;;;5049706;28;20033;-83
2021/12/09 11:38:45;;;;;;;13.00;6.28;;;3.10;99.90;;;;;;5028697;28;20014;-83
2021/12/09 11:40:43;;;;;;;12.95;5.88;;;3.20;99.90;;;;;;5013817;28;20033;-83
2021/12/09 11:43:12;;;;;;;10.35;5.00;;;3.20;99.90;;;;;;5031740;28;20026;-82
2021/12/09 11:45:44;;;;;;;11.65;5.55;;;3.20;99.90;;;;;;5033639;28;20042;-82
2021/12/09 11:48:12;;;;;;;14.37;5.23;;;3.20;99.90;;;;;;5013033;28;20026;-82
2021/12/09 11:50:42;;;;;;;9.15;5.18;;;3.20;99.90;;;;;;5030297;28;20079;-82
2021/12/09 11:53:11;;;;;;;12.40;5.55;;;3.20;99.90;;;;;;5012340;28;20033;-82
2021/12/09 11:55:43;;;;;;;10.40;5.07;;;3.20;99.90;;;;;;5015273;28;20025;-81
2021/12/09 11:58:20;;;;;;;9.85;4.45;;;3.20;99.90;;;;;;5018315;28;20018;-82
2021/12/09 12:12:52;;;;;;;12.65;4.95;;;3.10;99.90;;;;;;5024726;28;20036;-81
2021/12/09 12:21:03;;;;;;;9.65;4.70;;;3.00;99.90;;;;;;5034306;28;20057;-81
2021/12/09 12:23:30;;;;;;;11.90;4.22;;;3.00;99.90;;;;;;5017136;28;20033;-82
2021/12/09 12:31:59;;;;;;;18.40;5.10;;;3.10;99.90;;;;;;5055703;28;20026;-82
2021/12/09 12:37:44;;;;;;;9.82;5.20;;;3.10;99.90;;;;;;5034645;28;20033;-83
2021/12/09 12:40:12;;;;;;;13.68;5.55;;;3.10;99.90;;;;;;5018260;28;20029;-82
2021/12/09 12:42:48;;;;;;;13.40;5.32;;;3.10;99.90;;;;;;5035968;28;20022;-82
2021/12/09 12:45:31;;;;;;;10.25;5.40;;;3.10;99.90;;;;;;5016950;28;20022;-82
2021/12/09 12:48:15;;;;;;;11.70;4.72;;;3.10;99.90;;;;;;5018358;28;20018;-82
2021/12/09 12:51:16;;;;;;;14.25;5.55;;;3.00;99.90;;;;;;5040239;28;20029;-82
2021/12/09 12:53:44;;;;;;;14.00;5.50;;;3.00;99.90;;;;;;5022291;28;20033;-83
2021/12/09 12:56:22;;;;;;;14.63;5.45;;;3.00;99.90;;;;;;5017705;28;20044;-83
2021/12/09 13:01:40;;;;;;;7.80;4.45;;;2.90;99.90;;;;;;5040788;28;20029;-83
2021/12/09 13:13:25;;;;;;;9.57;5.53;;;3.10;99.90;;;;;;5018564;28;20022;-78
2021/12/09 13:19:08;;;;;;;11.50;5.28;;;3.30;99.90;;;;;;5041831;28;20080;-79
2021/12/09 13:21:42;;;;;;;10.10;4.53;;;3.30;99.90;;;;;;5024780;28;20018;-79
2021/12/09 13:24:26;;;;;;;14.20;6.63;;;3.20;99.90;;;;;;5041243;28;20078;-82
2021/12/09 13:57:05;;;;;;;7.43;4.70;;;3.20;99.90;;;;;;5034583;28;20014;-83
2021/12/09 13:59:34;;;;;;;10.13;5.05;;;3.20;99.90;;;;;;5014200;28;20054;-82
2021/12/09 14:02:21;;;;;;;9.57;4.50;;;3.20;99.90;;;;;;5007595;28;20088;-81
2021/12/09 14:04:47;;;;;;;9.50;4.45;;;3.20;99.90;;;;;;5001622;28;20029;-79
2021/12/09 14:07:22;;;;;;;7.90;4.30;;;3.10;99.90;;;;;;5015328;28;20040;-82
2021/12/09 14:10:00;;;;;;;9.15;4.60;;;3.10;99.90;;;;;;5018114;28;20052;-82
2021/12/09 14:12:32;;;;;;;8.30;4.63;;;3.10;99.90;;;;;;5018956;28;20090;-82
2021/12/09 14:15:05;;;;;;;8.48;4.63;;;3.10;99.90;;;;;;5035546;28;20006;-83
2021/12/09 14:17:31;;;;;;;12.15;5.20;;;3.10;99.90;;;;;;5035733;28;20021;-82
2021/12/09 14:19:58;;;;;;;8.55;4.47;;;3.10;99.90;;;;;;5035354;28;20057;-82
2021/12/09 14:22:29;;;;;;;10.25;4.45;;;3.10;99.90;;;;;;5015466;28;20034;-82